createdAt,value
2022-09-26T00:03:52.622Z,15.93
2022-09-26T00:09:55.533Z,15.13
2022-09-26T00:15:57.192Z,15.53
2022-09-26T00:21:58.552Z,14.30
2022-09-26T00:27:59.960Z,15.37
2022-09-26T00:34:01.419Z,17.42
2022-09-26T00:40:03.648Z,16.15
2022-09-26T00:46:10.842Z,15.60
2022-09-26T00:52:16.368Z,14.95
2022-09-26T00:58:22.148Z,15.97
2022-09-26T01:04:25.780Z,14.13
2022-09-26T01:10:28.624Z,14.40
2022-09-26T01:16:31.638Z,16.47
2022-09-26T01:22:51.922Z,14.52
2022-09-26T01:29:03.619Z,14.40
2022-09-26T01:35:12.483Z,17.50
2022-09-26T01:41:26.484Z,15.93
2022-09-26T01:47:33.701Z,15.73
2022-09-26T01:53:39.595Z,15.70
2022-09-26T01:59:45.085Z,16.03
2022-09-26T02:05:49.640Z,16.20
2022-09-26T02:11:53.311Z,16.65
2022-09-26T02:17:57.906Z,17.73
2022-09-26T02:24:01.497Z,15.50
2022-09-26T02:30:03.706Z,15.37
2022-09-26T02:36:08.267Z,17.95
2022-09-26T02:42:17.324Z,15.70
2022-09-26T02:48:27.666Z,21.33
2022-09-26T02:54:42.139Z,17.02
2022-09-26T03:00:53.295Z,18.97
2022-09-26T03:14:38.851Z,18.42
2022-09-26T03:20:41.491Z,18.27
2022-09-26T03:26:42.982Z,14.82
2022-09-26T03:32:44.367Z,15.90
2022-09-26T03:38:45.874Z,15.27
2022-09-26T03:45:08.620Z,17.58
2022-09-26T03:51:32.849Z,15.50
2022-09-26T03:57:34.458Z,13.68
2022-09-26T04:03:50.796Z,13.90
2022-09-26T04:09:52.776Z,15.25
2022-09-26T04:15:55.878Z,13.35
2022-09-26T04:21:59.383Z,14.33
2022-09-26T04:28:01.277Z,15.82
2022-09-26T04:34:05.909Z,16.20
2022-09-26T04:40:10.505Z,11.88
2022-09-26T04:46:24.601Z,14.73
2022-09-26T04:52:28.717Z,14.83
2022-09-26T04:58:30.493Z,12.95
2022-09-26T05:04:33.297Z,13.07
2022-09-26T05:10:35.012Z,14.27
2022-09-26T05:16:38.934Z,15.25
2022-09-26T05:22:41.650Z,12.97
2022-09-26T05:28:43.787Z,12.73
2022-09-26T05:34:48.803Z,11.07
2022-09-26T05:40:56.672Z,15.23
2022-09-26T05:46:59.468Z,11.68
2022-09-26T05:53:02.839Z,11.60
2022-09-26T05:59:04.846Z,10.35
2022-09-26T06:05:09.208Z,13.17
2022-09-26T06:11:32.664Z,11.00
2022-09-26T06:17:34.608Z,11.05
2022-09-26T06:23:36.260Z,12.63
2022-09-26T06:29:39.505Z,11.35
2022-09-26T06:35:41.064Z,9.83
2022-09-26T06:41:55.019Z,8.68
2022-09-26T06:48:03.968Z,6.97
2022-09-26T06:54:30.837Z,7.63
2022-09-26T07:00:35.418Z,7.13
2022-09-26T07:06:40.246Z,8.67
2022-09-26T07:12:44.026Z,8.38
2022-09-26T07:18:46.507Z,7.93
2022-09-26T07:24:51.739Z,6.67
2022-09-26T07:30:57.143Z,8.27
2022-09-26T07:37:25.636Z,10.37
2022-09-26T07:44:29.956Z,5.78
2022-09-26T07:50:13.289Z,6.85
2022-09-26T07:56:34.378Z,6.20
2022-09-26T08:03:03.267Z,8.45
2022-09-26T08:09:05.263Z,5.30
2022-09-26T08:15:27.160Z,7.57
2022-09-26T08:21:38.081Z,7.18
2022-09-26T08:27:43.448Z,6.97
2022-09-26T08:33:45.903Z,7.10
2022-09-26T08:39:48.119Z,5.73
2022-09-26T08:46:10.862Z,5.93
2022-09-26T08:52:33.124Z,6.10
2022-09-26T08:58:40.770Z,4.50
2022-09-26T09:04:53.823Z,4.50
2022-09-26T09:10:56.787Z,3.97
2022-09-26T09:17:13.666Z,5.90
2022-09-26T09:23:48.450Z,3.70
2022-09-26T09:30:01.387Z,8.27
2022-09-26T09:36:46.894Z,4.00
2022-09-26T09:43:39.191Z,5.67
2022-09-26T09:49:42.668Z,4.78
2022-09-26T09:55:49.025Z,3.72
2022-09-26T10:01:56.551Z,5.53
2022-09-26T10:07:58.642Z,5.72
2022-09-26T10:14:31.639Z,4.10
2022-09-26T10:20:37.861Z,4.13
2022-09-26T10:26:39.655Z,3.92
2022-09-26T10:32:45.755Z,3.77
2022-09-26T10:39:35.084Z,3.83
2022-09-26T10:45:36.919Z,4.43
2022-09-26T10:52:23.628Z,4.63
2022-09-26T10:58:29.438Z,4.28
2022-09-26T11:05:03.562Z,5.27
2022-09-26T11:11:29.420Z,5.32
2022-09-26T11:17:48.654Z,5.17
2022-09-26T11:23:58.611Z,5.55
2022-09-26T11:30:09.262Z,5.07
2022-09-26T11:36:23.299Z,5.33
2022-09-26T11:42:43.806Z,5.20
2022-09-26T11:48:49.239Z,3.87
2022-09-26T11:55:31.034Z,5.25
2022-09-26T12:01:32.859Z,5.55
2022-09-26T12:07:40.138Z,3.77
2022-09-26T12:13:48.528Z,3.83
2022-09-26T12:20:08.608Z,2.80
2022-09-26T12:26:16.004Z,5.15
2022-09-26T12:32:25.993Z,3.22
2022-09-26T12:38:45.990Z,4.40
2022-09-26T12:44:54.968Z,3.58
2022-09-26T12:51:16.347Z,2.80
2022-09-26T12:57:38.392Z,3.25
2022-09-26T13:03:49.637Z,3.53
2022-09-26T13:10:02.835Z,4.27
2022-09-26T13:16:11.155Z,5.30
2022-09-26T13:22:25.909Z,4.10
2022-09-26T13:29:00.461Z,4.25
2022-09-26T13:35:06.910Z,3.88
2022-09-26T13:41:27.021Z,4.60
2022-09-26T13:47:40.535Z,4.78
2022-09-26T13:53:45.703Z,6.30
2022-09-26T13:59:51.557Z,3.70
2022-09-26T14:06:06.359Z,2.88
2022-09-26T14:12:19.120Z,4.30
2022-09-26T14:18:44.795Z,3.72
2022-09-26T14:24:49.663Z,3.83
2022-09-26T14:31:11.186Z,3.92
2022-09-26T14:37:24.206Z,4.30
2022-09-26T14:43:28.125Z,4.37
2022-09-26T14:49:29.545Z,5.00
2022-09-26T14:55:31.213Z,3.60
2022-09-26T15:01:37.249Z,3.58
2022-09-26T15:08:04.737Z,3.15
2022-09-26T15:14:16.578Z,5.50
2022-09-26T15:20:19.507Z,3.97
2022-09-26T15:26:22.306Z,2.90
2022-09-26T15:32:27.838Z,3.70
2022-09-26T15:38:29.198Z,5.93
2022-09-26T15:44:34.845Z,3.97
2022-09-26T15:50:40.298Z,3.00
2022-09-26T15:56:43.475Z,3.50
2022-09-26T16:02:45.125Z,3.58
2022-09-26T16:08:49.956Z,3.53
2022-09-26T16:14:58.565Z,4.70
2022-09-26T16:21:13.949Z,3.00
2022-09-26T16:27:33.056Z,6.13
2022-09-26T16:33:35.254Z,3.10
2022-09-26T16:39:36.673Z,4.53
2022-09-26T16:45:48.279Z,3.30
2022-09-26T16:52:09.632Z,4.88
2022-09-26T16:58:12.059Z,3.63
2022-09-26T17:04:18.099Z,3.92
2022-09-26T17:10:20.767Z,3.60
2022-09-26T17:16:22.595Z,4.67
2022-09-26T17:22:24.275Z,2.55
2022-09-26T17:28:31.012Z,3.30
2022-09-26T17:34:32.569Z,2.92
2022-09-26T17:40:33.959Z,2.97
2022-09-26T17:46:38.240Z,2.70
2022-09-26T17:52:39.685Z,3.38
2022-09-26T17:58:43.924Z,3.30
2022-09-26T18:04:45.456Z,3.95
2022-09-26T18:10:56.660Z,3.20
2022-09-26T18:16:58.800Z,2.97
2022-09-26T18:23:00.522Z,3.60
2022-09-26T18:29:06.166Z,4.00
2022-09-26T18:35:14.681Z,2.63
2022-09-26T18:41:18.674Z,4.38
2022-09-26T18:47:20.081Z,3.30
2022-09-26T18:53:23.158Z,3.33
2022-09-26T18:59:28.868Z,3.40
2022-09-26T19:05:30.838Z,3.17
2022-09-26T19:11:34.540Z,4.00
2022-09-26T19:17:35.964Z,3.67
2022-09-26T19:23:38.506Z,3.63
2022-09-26T19:29:41.635Z,4.37
2022-09-26T19:35:43.215Z,4.13
2022-09-26T19:41:44.609Z,4.18
2022-09-26T19:47:47.415Z,4.90
2022-09-26T19:53:48.780Z,6.20
2022-09-26T19:59:50.454Z,3.97
2022-09-26T20:05:52.287Z,6.80
2022-09-26T20:11:53.679Z,4.40
2022-09-26T20:17:58.359Z,3.67
2022-09-26T20:24:02.528Z,4.35
2022-09-26T20:30:24.732Z,3.53
2022-09-26T20:36:31.953Z,4.95
2022-09-26T20:42:35.398Z,3.47
2022-09-26T20:48:37.195Z,3.40
2022-09-26T20:54:38.620Z,3.60
2022-09-26T21:00:40.723Z,4.97
2022-09-26T21:06:42.858Z,3.53
2022-09-26T21:12:44.210Z,3.08
2022-09-26T21:18:47.284Z,4.40
2022-09-26T21:24:49.359Z,3.58
2022-09-26T21:30:50.749Z,3.67
2022-09-26T21:36:54.132Z,2.80
2022-09-26T21:43:14.054Z,3.15
2022-09-26T21:49:15.675Z,3.00
2022-09-26T21:55:22.112Z,7.25
2022-09-26T22:01:23.963Z,3.30
2022-09-26T22:07:25.515Z,4.47
2022-09-26T22:13:27.128Z,3.38
2022-09-26T22:19:33.183Z,3.23
2022-09-26T22:25:34.630Z,4.75
2022-09-26T22:31:36.013Z,3.93
2022-09-26T22:37:37.433Z,3.15
2022-09-26T22:43:38.804Z,7.95
2022-09-26T22:49:40.186Z,3.70
2022-09-26T22:55:41.615Z,3.30
2022-09-26T23:01:43.261Z,5.20
2022-09-26T23:07:44.746Z,4.13
2022-09-26T23:13:46.710Z,3.38
2022-09-26T23:19:48.099Z,3.20
2022-09-26T23:25:50.025Z,4.70
2022-09-26T23:31:52.165Z,2.93
2022-09-26T23:37:55.151Z,3.10
2022-09-26T23:43:56.596Z,3.53
2022-09-26T23:49:58.009Z,4.00
2022-09-26T23:56:03.665Z,3.75
